Time;durP1;ratioP1;P1;durP2;ratioP2;P2;SDS_P1;SDS_P2;PMS_P1;PMS_P2;Temp;Humidity;BMP_temperature;BMP_pressure;BME280_temperature;BME280_humidity;BME280_pressure;Samples;Min_cycle;Max_cycle;Signal;HPM_P1;HPM_P2
2023/01/27 00:00:16;;;;;;;24.73;4.35;;;;;;;-144.87;100.00;61487.56;5005815;28;20446;-76
2023/01/27 00:02:44;;;;;;;15.35;3.63;;;;;;;-144.87;100.00;61487.56;5036916;28;20092;-76
2023/01/27 00:05:13;;;;;;;18.23;4.05;;;;;;;-144.87;100.00;61487.56;5003623;28;20042;-76
2023/01/27 00:07:44;;;;;;;15.55;3.53;;;;;;;-144.87;100.00;61487.56;5008027;28;20034;-76
2023/01/27 00:10:14;;;;;;;18.45;3.35;;;;;;;-144.87;100.00;61487.56;5005867;28;20258;-77
2023/01/27 00:15:26;;;;;;;23.58;3.97;;;;;;;-144.87;100.00;61487.56;5028792;28;20057;-78
2023/01/27 00:17:52;;;;;;;17.88;3.05;;;;;;;-144.87;100.00;61487.56;5008129;28;20397;-76
2023/01/27 00:24:34;;;;;;;18.38;4.05;;;;;;;-144.87;100.00;61487.56;5004713;28;20052;-76
2023/01/27 00:25:57;;;;;;;18.27;3.88;;;;;;;-144.87;100.00;61487.56;5006353;28;20045;-78
2023/01/27 00:28:24;;;;;;;22.38;4.68;;;;;;;-144.87;100.00;61487.56;4990251;28;20038;-78
2023/01/27 00:30:51;;;;;;;12.55;3.38;;;;;;;-144.87;100.00;61487.56;5038097;28;20044;-78
2023/01/27 00:33:24;;;;;;;18.48;4.10;;;;;;;-144.87;100.00;61487.56;5038641;28;20049;-76
2023/01/27 00:36:05;;;;;;;22.55;4.60;;;;;;;-144.87;100.00;61487.56;4992301;28;20061;-76
2023/01/27 00:38:39;;;;;;;22.90;3.70;;;;;;;-144.87;100.00;61487.56;4991478;28;20074;-79
2023/01/27 00:41:18;;;;;;;19.75;4.30;;;;;;;-144.87;100.00;61487.56;5022790;28;20041;-79
2023/01/27 00:43:49;;;;;;;22.42;3.92;;;;;;;-144.87;100.00;61487.56;5003678;28;20065;-83
2023/01/27 00:46:16;;;;;;;20.48;4.18;;;;;;;-144.87;100.00;61487.56;5022122;28;20046;-78
2023/01/27 00:48:42;;;;;;;21.13;4.47;;;;;;;-144.87;100.00;61487.56;5006866;28;20609;-78
2023/01/27 00:51:08;;;;;;;16.17;3.22;;;;;;;-144.87;100.00;61487.56;5009009;28;20045;-77
2023/01/27 00:53:35;;;;;;;19.05;4.63;;;;;;;-144.87;100.00;61487.56;5001647;28;20525;-76
2023/01/27 00:56:02;;;;;;;18.45;3.42;;;;;;;-144.87;100.00;61487.56;5040078;28;20049;-76
2023/01/27 00:58:29;;;;;;;15.48;4.20;;;;;;;-144.87;100.00;61487.56;5035990;28;20451;-76
2023/01/27 01:00:58;;;;;;;12.02;4.22;;;;;;;-144.87;100.00;61487.56;5020193;28;20112;-76
2023/01/27 01:03:25;;;;;;;11.27;3.72;;;;;;;-144.87;100.00;61487.56;5018860;28;20021;-76
2023/01/27 01:05:51;;;;;;;14.73;4.03;;;;;;;-144.87;100.00;61487.56;5022199;28;20738;-76
2023/01/27 01:08:18;;;;;;;11.05;4.22;;;;;;;-144.87;100.00;61487.56;5002596;28;20411;-77
2023/01/27 01:10:45;;;;;;;15.20;4.25;;;;;;;-144.87;100.00;61487.56;5019924;28;20034;-76
2023/01/27 01:13:11;;;;;;;20.77;4.72;;;;;;;-144.87;100.00;61487.56;5008776;28;20412;-77
2023/01/27 01:15:39;;;;;;;20.73;6.28;;;;;;;-144.87;100.00;61487.56;5005058;28;20065;-77
2023/01/27 01:18:06;;;;;;;13.18;5.50;;;;;;;-144.87;100.00;61487.56;5023587;28;20029;-77
2023/01/27 01:20:38;;;;;;;21.25;5.32;;;;;;;-144.87;100.00;61487.56;5021422;28;20392;-76
2023/01/27 01:23:05;;;;;;;16.05;6.22;;;;;;;-144.87;100.00;61487.56;5037267;28;20456;-76
2023/01/27 01:25:32;;;;;;;17.63;5.82;;;;;;;-144.87;100.00;61487.56;4988350;28;20076;-76
2023/01/27 01:27:58;;;;;;;18.10;6.15;;;;;;;-144.87;100.00;61487.56;5006721;28;20471;-76
2023/01/27 01:30:26;;;;;;;25.35;6.82;;;;;;;-144.87;100.00;61487.56;5003634;28;20021;-77
2023/01/27 01:32:53;;;;;;;19.70;7.00;;;;;;;-144.87;100.00;61487.56;5042134;28;20046;-77
2023/01/27 01:35:20;;;;;;;16.98;6.75;;;;;;;-144.87;100.00;61487.56;5011441;28;20091;-76
2023/01/27 01:37:46;;;;;;;20.92;8.10;;;;;;;-144.87;100.00;61487.56;5039996;28;20459;-76
2023/01/27 01:40:13;;;;;;;23.17;8.35;;;;;;;-144.87;100.00;61487.56;5038533;28;20475;-76
2023/01/27 01:42:52;;;;;;;26.55;9.27;;;;;;;-144.87;100.00;61487.56;5040673;28;20038;-76
2023/01/27 01:45:30;;;;;;;30.92;9.50;;;;;;;-144.87;100.00;61487.56;5009683;28;20053;-76
2023/01/27 01:48:02;;;;;;;19.52;8.57;;;;;;;-144.87;100.00;61487.56;5022373;28;20112;-76
2023/01/27 01:50:29;;;;;;;22.23;8.40;;;;;;;-144.87;100.00;61487.56;5006774;28;20029;-76
2023/01/27 01:52:56;;;;;;;18.20;8.50;;;;;;;-144.87;100.00;61487.56;5041254;28;20090;-76
2023/01/27 01:55:23;;;;;;;24.58;8.70;;;;;;;-144.87;100.00;61487.56;5005666;28;20045;-76
2023/01/27 01:57:50;;;;;;;18.73;8.27;;;;;;;-144.87;100.00;61487.56;5035708;28;20032;-76
2023/01/27 02:00:16;;;;;;;19.10;8.38;;;;;;;-144.87;100.00;61487.56;5004632;28;20431;-76
2023/01/27 02:02:48;;;;;;;19.23;8.75;;;;;;;-144.87;100.00;61487.56;5003523;28;20432;-77
2023/01/27 02:05:18;;;;;;;19.98;7.90;;;;;;;-144.87;100.00;61487.56;5024553;28;20033;-76
2023/01/27 02:07:55;;;;;;;12.65;6.25;;;;;;;-144.87;100.00;61487.56;5008506;28;20766;-80
2023/01/27 02:10:23;;;;;;;22.08;9.40;;;;;;;-144.87;100.00;61487.56;5022661;28;20129;-76
2023/01/27 02:12:49;;;;;;;20.92;8.95;;;;;;;-144.87;100.00;61487.56;5024529;28;20500;-78
2023/01/27 02:15:16;;;;;;;22.63;8.45;;;;;;;-144.87;100.00;61487.56;5008752;28;20094;-78
2023/01/27 02:17:43;;;;;;;20.17;8.32;;;;;;;-144.87;100.00;61487.56;4988898;28;20137;-77
2023/01/27 02:20:30;;;;;;;20.10;9.25;;;;;;;-144.87;100.00;61487.56;5006232;28;20034;-77
2023/01/27 02:23:26;;;;;;;20.35;8.88;;;;;;;-144.87;100.00;61487.56;5023205;28;20045;-76
2023/01/27 02:26:14;;;;;;;21.77;8.98;;;;;;;-144.87;100.00;61487.56;5036324;28;20037;-77
2023/01/27 02:28:41;;;;;;;22.45;8.95;;;;;;;-144.87;100.00;61487.56;5040380;28;20084;-77
2023/01/27 02:31:07;;;;;;;16.52;9.32;;;;;;;-144.87;100.00;61487.56;5040295;28;20198;-76
2023/01/27 02:33:33;;;;;;;23.25;8.45;;;;;;;-144.87;100.00;61487.56;5007774;28;20112;-76
2023/01/27 02:36:06;;;;;;;22.35;9.15;;;;;;;-144.87;100.00;61487.56;5006481;28;20121;-76
2023/01/27 02:38:35;;;;;;;21.77;9.85;;;;;;;-144.87;100.00;61487.56;5006491;28;20042;-76
2023/01/27 02:41:26;;;;;;;22.08;9.60;;;;;;;-144.87;100.00;61487.56;5036534;28;20065;-76
2023/01/27 02:43:54;;;;;;;21.65;10.00;;;;;;;-144.87;100.00;61487.56;5017023;28;20041;-75
2023/01/27 02:46:20;;;;;;;25.65;11.20;;;;;;;-144.87;100.00;61487.56;5017922;28;20037;-76
2023/01/27 02:48:46;;;;;;;34.20;13.02;;;;;;;-144.87;100.00;61487.56;5039038;28;20073;-78
2023/01/27 02:51:13;;;;;;;28.85;12.93;;;;;;;-144.87;100.00;61487.56;5006045;28;20038;-76
2023/01/27 02:53:42;;;;;;;23.58;13.25;;;;;;;-144.87;100.00;61487.56;5039822;28;20049;-77
2023/01/27 02:56:08;;;;;;;32.22;14.65;;;;;;;-144.87;100.00;61487.56;5040448;28;20509;-76
2023/01/27 02:58:35;;;;;;;30.98;13.23;;;;;;;-144.87;100.00;61487.56;5018428;28;20053;-77
2023/01/27 03:01:08;;;;;;;28.45;14.00;;;;;;;-144.87;100.00;61487.56;5031929;28;20037;-77
2023/01/27 03:03:42;;;;;;;31.70;13.48;;;;;;;-144.87;100.00;61487.56;5023483;28;20673;-76
2023/01/27 03:06:11;;;;;;;30.63;15.20;;;;;;;-144.87;100.00;61487.56;5037366;28;20042;-76
2023/01/27 03:08:37;;;;;;;33.00;15.38;;;;;;;-144.87;100.00;61487.56;5025773;28;20042;-76
2023/01/27 03:11:05;;;;;;;41.72;17.20;;;;;;;-144.87;100.00;61487.56;5024500;28;20061;-76
2023/01/27 03:13:31;;;;;;;31.05;15.55;;;;;;;-144.87;100.00;61487.56;5010338;28;20030;-77
2023/01/27 03:18:46;;;;;;;29.35;15.52;;;;;;;-144.87;100.00;61487.56;5029277;28;20038;-79
2023/01/27 03:21:13;;;;;;;23.25;14.07;;;;;;;-144.87;100.00;61487.56;5026873;28;20116;-77
2023/01/27 03:23:39;;;;;;;29.55;15.48;;;;;;;-144.87;100.00;61487.56;5007057;28;20034;-77
2023/01/27 03:26:08;;;;;;;23.05;14.00;;;;;;;-144.87;100.00;61487.56;5010798;28;20077;-77
2023/01/27 03:28:36;;;;;;;20.40;12.52;;;;;;;-144.87;100.00;61487.56;5027366;28;20029;-76
2023/01/27 03:31:18;;;;;;;28.65;15.57;;;;;;;-144.87;100.00;61487.56;5014990;28;20045;-76
2023/01/27 03:34:00;;;;;;;24.23;14.48;;;;;;;-144.87;100.00;61487.56;4997150;28;20103;-76
2023/01/27 03:47:32;;;;;;;19.98;12.40;;;;;;;-144.87;100.00;61487.56;5033348;28;20037;-75
2023/01/27 03:49:58;;;;;;;20.63;12.50;;;;;;;-144.87;100.00;61487.56;5001700;28;20065;-76
2023/01/27 03:52:24;;;;;;;22.52;12.15;;;;;;;-144.87;100.00;61487.56;5010524;28;20081;-76
2023/01/27 03:54:50;;;;;;;20.23;12.50;;;;;;;-144.87;100.00;61487.56;5005958;28;20505;-76
2023/01/27 03:57:17;;;;;;;19.75;12.18;;;;;;;-144.87;100.00;61487.56;5011612;28;20136;-76
2023/01/27 03:59:43;;;;;;;22.23;12.45;;;;;;;-144.87;100.00;61487.56;5041937;28;20053;-76
2023/01/27 04:07:39;;;;;;;15.70;9.63;;;;;;;-144.87;100.00;61487.56;5012631;28;20030;-76
2023/01/27 04:10:06;;;;;;;13.90;8.48;;;;;;;-144.87;100.00;61487.56;5008519;28;20041;-76
2023/01/27 04:12:32;;;;;;;14.93;8.52;;;;;;;-144.87;100.00;61487.56;5027304;28;20416;-77
2023/01/27 04:14:59;;;;;;;15.52;9.18;;;;;;;-144.87;100.00;61487.56;5007341;28;20397;-76
2023/01/27 04:17:25;;;;;;;14.05;8.27;;;;;;;-144.87;100.00;61487.56;5004364;28;20073;-78
2023/01/27 04:19:51;;;;;;;15.35;8.30;;;;;;;-144.87;100.00;61487.56;5031338;28;20183;-76
2023/01/27 04:22:17;;;;;;;12.00;8.23;;;;;;;-144.87;100.00;61487.56;5008323;28;20051;-76
2023/01/27 04:24:44;;;;;;;12.52;8.50;;;;;;;-144.87;100.00;61487.56;5009810;28;20034;-76
2023/01/27 04:27:14;;;;;;;12.90;8.77;;;;;;;-144.87;100.00;61487.56;5026510;28;20736;-76
2023/01/27 04:29:41;;;;;;;15.57;7.70;;;;;;;-144.87;100.00;61487.56;5041281;28;20063;-77
2023/01/27 04:32:09;;;;;;;10.63;7.40;;;;;;;-144.87;100.00;61487.56;5010085;28;20099;-77
2023/01/27 04:34:36;;;;;;;11.52;6.45;;;;;;;-144.87;100.00;61487.56;5024846;28;20049;-76
2023/01/27 04:37:04;;;;;;;12.20;6.78;;;;;;;-144.87;100.00;61487.56;5031263;28;20050;-77
2023/01/27 04:39:30;;;;;;;10.75;6.45;;;;;;;-144.87;100.00;61487.56;5038370;28;20428;-79
2023/01/27 04:41:56;;;;;;;9.25;6.45;;;;;;;-144.87;100.00;61487.56;5003861;28;20056;-77
2023/01/27 04:44:23;;;;;;;8.18;5.78;;;;;;;-144.87;100.00;61487.56;5040514;28;20030;-76
2023/01/27 04:46:49;;;;;;;8.15;6.25;;;;;;;-144.87;100.00;61487.56;5043040;28;20456;-76
2023/01/27 04:49:16;;;;;;;11.10;5.85;;;;;;;-144.87;100.00;61487.56;5021286;28;20046;-76
2023/01/27 04:51:42;;;;;;;11.20;6.00;;;;;;;-144.87;100.00;61487.56;5016510;28;20428;-76
2023/01/27 04:54:09;;;;;;;8.68;5.57;;;;;;;-144.87;100.00;61487.56;5021819;28;20063;-77
2023/01/27 04:57:03;;;;;;;9.55;5.70;;;;;;;-144.87;100.00;61487.56;5023876;28;20100;-76
2023/01/27 04:59:29;;;;;;;7.63;5.40;;;;;;;-144.87;100.00;61487.56;5009750;28;20124;-76
2023/01/27 05:01:56;;;;;;;9.70;5.50;;;;;;;-144.87;100.00;61487.56;5021590;28;20463;-76
2023/01/27 05:04:23;;;;;;;9.93;6.05;;;;;;;-144.87;100.00;61487.56;5005642;28;20048;-76
2023/01/27 05:06:49;;;;;;;8.68;5.43;;;;;;;-144.87;100.00;61487.56;5023008;28;20120;-77
2023/01/27 05:09:15;;;;;;;7.90;5.65;;;;;;;-144.87;100.00;61487.56;5038978;28;20540;-77
2023/01/27 05:11:41;;;;;;;7.85;5.28;;;;;;;-144.87;100.00;61487.56;5026259;28;20065;-79
2023/01/27 05:14:08;;;;;;;6.70;5.22;;;;;;;-144.87;100.00;61487.56;5006840;28;20049;-78
2023/01/27 05:16:34;;;;;;;8.60;6.05;;;;;;;-144.87;100.00;61487.56;5007697;28;20030;-76
2023/01/27 05:19:04;;;;;;;7.30;5.28;;;;;;;-144.87;100.00;61487.56;5011226;28;20029;-77
2023/01/27 05:21:30;;;;;;;7.18;5.45;;;;;;;-144.87;100.00;61487.56;5007672;28;20128;-76
2023/01/27 05:23:56;;;;;;;12.43;5.70;;;;;;;-144.87;100.00;61487.56;5008652;28;20141;-76
2023/01/27 05:26:27;;;;;;;7.35;5.32;;;;;;;-144.87;100.00;61487.56;5009836;28;20038;-76
2023/01/27 05:28:55;;;;;;;9.53;5.30;;;;;;;-144.87;100.00;61487.56;4991149;28;20052;-77
2023/01/27 05:31:25;;;;;;;8.07;5.38;;;;;;;-144.87;100.00;61487.56;5040946;28;20938;-76
2023/01/27 05:33:53;;;;;;;11.30;6.43;;;;;;;-144.87;100.00;61487.56;5010185;28;20123;-77
2023/01/27 05:36:21;;;;;;;7.47;6.00;;;;;;;-144.87;100.00;61487.56;5007945;28;20034;-77
2023/01/27 05:39:08;;;;;;;11.60;5.97;;;;;;;-144.87;100.00;61487.56;5024201;28;20534;-78
2023/01/27 05:41:34;;;;;;;7.60;5.35;;;;;;;-144.87;100.00;61487.56;5015472;28;20030;-77
2023/01/27 05:44:00;;;;;;;6.70;5.15;;;;;;;-144.87;100.00;61487.56;5022751;28;20038;-77
2023/01/27 05:46:29;;;;;;;6.95;5.35;;;;;;;-144.87;100.00;61487.56;5021365;28;20044;-76
2023/01/27 05:48:58;;;;;;;8.65;5.03;;;;;;;-144.87;100.00;61487.56;5024357;28;20405;-77
2023/01/27 05:51:26;;;;;;;8.48;5.40;;;;;;;-144.87;100.00;61487.56;5031144;28;20037;-76
2023/01/27 05:53:54;;;;;;;11.07;5.10;;;;;;;-144.87;100.00;61487.56;5017878;28;20045;-77
2023/01/27 05:56:21;;;;;;;6.93;4.82;;;;;;;-144.87;100.00;61487.56;5040271;28;20030;-76
2023/01/27 05:58:49;;;;;;;9.27;5.10;;;;;;;-144.87;100.00;61487.56;4992181;28;20060;-78
2023/01/27 06:01:18;;;;;;;7.65;5.63;;;;;;;-144.87;100.00;61487.56;5007178;28;20058;-76
2023/01/27 06:03:46;;;;;;;7.03;4.65;;;;;;;-144.87;100.00;61487.56;5020729;28;20041;-76
2023/01/27 06:06:13;;;;;;;7.03;4.88;;;;;;;-144.87;100.00;61487.56;5004027;28;20037;-76
2023/01/27 06:08:40;;;;;;;7.28;5.07;;;;;;;-144.87;100.00;61487.56;5010576;28;20034;-77
2023/01/27 06:11:06;;;;;;;6.60;4.65;;;;;;;-144.87;100.00;61487.56;5008692;28;20056;-77
2023/01/27 06:13:37;;;;;;;8.25;4.70;;;;;;;-144.87;100.00;61487.56;4986989;28;20039;-78
2023/01/27 06:16:05;;;;;;;5.45;4.25;;;;;;;-144.87;100.00;61487.56;5023923;28;20052;-77
2023/01/27 06:18:32;;;;;;;6.07;4.53;;;;;;;-144.87;100.00;61487.56;5041783;28;20124;-77
2023/01/27 06:21:00;;;;;;;7.85;3.88;;;;;;;-144.87;100.00;61487.56;5041001;28;20727;-77
2023/01/27 06:23:26;;;;;;;5.90;3.20;;;;;;;-144.87;100.00;61487.56;5040032;28;20420;-78
2023/01/27 06:25:53;;;;;;;6.10;3.28;;;;;;;-144.87;100.00;61487.56;5023802;28;20050;-78
2023/01/27 06:28:20;;;;;;;7.13;3.72;;;;;;;-144.87;100.00;61487.56;5004486;28;20038;-78
2023/01/27 06:30:46;;;;;;;11.52;4.22;;;;;;;-144.87;100.00;61487.56;5023543;28;20077;-75
2023/01/27 06:33:14;;;;;;;6.93;3.70;;;;;;;-144.87;100.00;61487.56;5024109;28;20444;-76
2023/01/27 06:35:41;;;;;;;6.35;3.65;;;;;;;-144.87;100.00;61487.56;5006551;28;20365;-78
2023/01/27 06:38:09;;;;;;;5.18;3.45;;;;;;;-144.87;100.00;61487.56;5041470;28;20470;-75
2023/01/27 06:40:36;;;;;;;6.32;4.30;;;;;;;-144.87;100.00;61487.56;5025225;28;20481;-78
2023/01/27 06:43:02;;;;;;;9.25;4.32;;;;;;;-144.87;100.00;61487.56;5007976;28;20125;-78
2023/01/27 06:45:29;;;;;;;8.50;3.53;;;;;;;-144.87;100.00;61487.56;5011066;28;20057;-76
2023/01/27 06:47:57;;;;;;;7.10;3.50;;;;;;;-144.87;100.00;61487.56;5024720;28;20034;-76
2023/01/27 06:50:24;;;;;;;6.68;4.22;;;;;;;-144.87;100.00;61487.56;5005564;28;20110;-76
2023/01/27 06:52:51;;;;;;;11.88;3.90;;;;;;;-144.87;100.00;61487.56;5008070;28;20042;-78
2023/01/27 06:55:18;;;;;;;5.82;4.05;;;;;;;-144.87;100.00;61487.56;5002048;28;20062;-77
2023/01/27 06:57:47;;;;;;;7.22;4.15;;;;;;;-144.87;100.00;61487.56;5002927;28;20409;-77
2023/01/27 07:00:15;;;;;;;5.60;4.03;;;;;;;-144.87;100.00;61487.56;5007541;28;20084;-77
2023/01/27 07:02:42;;;;;;;11.85;5.15;;;;;;;-144.87;100.00;61487.56;5007055;28;20070;-79
2023/01/27 07:05:08;;;;;;;5.40;4.13;;;;;;;-144.87;100.00;61487.56;5014260;28;20026;-77
2023/01/27 07:07:35;;;;;;;7.07;4.72;;;;;;;-144.87;100.00;61487.56;5039839;28;20491;-77
2023/01/27 07:10:01;;;;;;;8.32;4.10;;;;;;;-144.87;100.00;61487.56;5015919;28;20037;-77
2023/01/27 07:12:27;;;;;;;11.50;4.28;;;;;;;-144.87;100.00;61487.56;5037227;28;20408;-77
2023/01/27 07:14:54;;;;;;;4.55;3.60;;;;;;;-144.87;100.00;61487.56;5002863;28;20069;-78
2023/01/27 07:17:20;;;;;;;3.75;3.10;;;;;;;-144.87;100.00;61487.56;5005682;28;20648;-77
2023/01/27 07:19:48;;;;;;;5.68;3.92;;;;;;;-144.87;100.00;61487.56;5035955;28;20034;-78
2023/01/27 07:22:14;;;;;;;7.00;3.88;;;;;;;-144.87;100.00;61487.56;5003879;28;20498;-78
2023/01/27 07:24:40;;;;;;;8.93;3.88;;;;;;;-144.87;100.00;61487.56;5000208;28;20112;-78
2023/01/27 07:27:06;;;;;;;8.25;4.38;;;;;;;-144.87;100.00;61487.56;5033567;28;20437;-78
2023/01/27 07:29:33;;;;;;;8.90;3.80;;;;;;;-144.87;100.00;61487.56;5004893;28;20041;-78
2023/01/27 07:31:59;;;;;;;7.82;4.57;;;;;;;-144.87;100.00;61487.56;5002307;28;20066;-78
2023/01/27 07:34:25;;;;;;;8.48;4.57;;;;;;;-144.87;100.00;61487.56;5038032;28;20049;-77
2023/01/27 07:36:51;;;;;;;7.93;3.75;;;;;;;-144.87;100.00;61487.56;4999489;28;20026;-77
2023/01/27 07:39:17;;;;;;;8.57;4.03;;;;;;;-144.87;100.00;61487.56;5006461;28;20187;-77
2023/01/27 07:41:44;;;;;;;9.15;4.50;;;;;;;-144.87;100.00;61487.56;5001954;28;20041;-78
2023/01/27 07:44:14;;;;;;;7.80;4.13;;;;;;;-144.87;100.00;61487.56;5016807;28;20042;-77
2023/01/27 07:46:41;;;;;;;6.13;3.50;;;;;;;-144.87;100.00;61487.56;5018738;28;20042;-77
2023/01/27 07:49:08;;;;;;;7.00;3.60;;;;;;;-144.87;100.00;61487.56;4986389;28;20378;-77
2023/01/27 07:51:34;;;;;;;8.52;4.57;;;;;;;-144.87;100.00;61487.56;5036621;28;20046;-77
2023/01/27 07:54:01;;;;;;;7.55;3.63;;;;;;;-144.87;100.00;61487.56;5004195;28;20095;-77
2023/01/27 07:56:27;;;;;;;8.23;3.80;;;;;;;-144.87;100.00;61487.56;5021535;28;20049;-77
2023/01/27 07:58:54;;;;;;;4.93;3.65;;;;;;;-144.87;100.00;61487.56;5009586;28;20034;-76
2023/01/27 08:01:21;;;;;;;10.27;4.40;;;;;;;-144.87;100.00;61487.56;5015786;28;20080;-76
2023/01/27 08:03:47;;;;;;;7.82;3.90;;;;;;;-144.87;100.00;61487.56;5029397;28;20440;-78
2023/01/27 08:06:13;;;;;;;7.80;3.80;;;;;;;-144.87;100.00;61487.56;5025758;28;20041;-76
2023/01/27 08:08:40;;;;;;;22.55;4.70;;;;;;;-144.87;100.00;61487.56;5018444;28;20124;-76
2023/01/27 08:11:09;;;;;;;10.70;4.40;;;;;;;-144.87;100.00;61487.56;5029480;28;20029;-77
2023/01/27 08:13:36;;;;;;;8.02;3.70;;;;;;;-144.87;100.00;61487.56;5019529;28;20485;-77
2023/01/27 08:16:05;;;;;;;7.78;3.63;;;;;;;-144.87;100.00;61487.56;5017636;28;20136;-77
2023/01/27 08:18:35;;;;;;;10.32;4.47;;;;;;;-144.87;100.00;61487.56;5048951;28;20580;-77
2023/01/27 08:21:04;;;;;;;9.95;3.42;;;;;;;-144.87;100.00;61487.56;5041101;28;20040;-77
2023/01/27 08:23:31;;;;;;;6.18;3.78;;;;;;;-144.87;100.00;61487.56;5007462;28;20037;-78
2023/01/27 08:25:59;;;;;;;6.53;3.38;;;;;;;-144.87;100.00;61487.56;5010160;28;20045;-77
2023/01/27 08:28:27;;;;;;;6.60;3.22;;;;;;;-144.87;100.00;61487.56;5045200;28;20763;-77
2023/01/27 08:30:53;;;;;;;5.40;3.00;;;;;;;-144.87;100.00;61487.56;5043103;28;20100;-76
2023/01/27 08:33:23;;;;;;;11.63;3.10;;;;;;;-144.87;100.00;61487.56;5022659;28;20041;-77
2023/01/27 08:35:50;;;;;;;8.80;3.20;;;;;;;-144.87;100.00;61487.56;5013774;28;20041;-77
2023/01/27 08:38:17;;;;;;;5.47;3.10;;;;;;;-144.87;100.00;61487.56;5011473;28;20500;-77
2023/01/27 08:40:45;;;;;;;7.82;3.35;;;;;;;-144.87;100.00;61487.56;5018213;28;20405;-78
2023/01/27 08:43:15;;;;;;;6.32;2.67;;;;;;;-144.87;100.00;61487.56;5048039;28;20959;-77
2023/01/27 08:45:41;;;;;;;8.30;3.17;;;;;;;-144.87;100.00;61487.56;5008647;28;20480;-78
2023/01/27 08:48:08;;;;;;;6.70;2.83;;;;;;;-144.87;100.00;61487.56;5015990;28;20092;-78
2023/01/27 08:50:34;;;;;;;7.65;2.70;;;;;;;-144.87;100.00;61487.56;5036684;28;20038;-76
2023/01/27 08:53:00;;;;;;;6.07;3.30;;;;;;;-144.87;100.00;61487.56;5009869;28;20525;-76
2023/01/27 08:55:27;;;;;;;8.20;2.70;;;;;;;-144.87;100.00;61487.56;4994248;28;20120;-76
2023/01/27 08:57:54;;;;;;;7.40;2.33;;;;;;;-144.87;100.00;61487.56;5008998;28;20046;-77
2023/01/27 09:00:21;;;;;;;6.50;2.50;;;;;;;-144.87;100.00;61487.56;5038269;28;20119;-78
2023/01/27 09:02:50;;;;;;;6.03;2.45;;;;;;;-144.87;100.00;61487.56;5042215;28;20090;-78
2023/01/27 09:05:17;;;;;;;6.28;2.42;;;;;;;-144.87;100.00;61487.56;5009077;28;20247;-78
2023/01/27 09:08:08;;;;;;;4.85;2.60;;;;;;;-144.87;100.00;61487.56;5036654;28;20053;-78
2023/01/27 09:10:41;;;;;;;4.47;2.30;;;;;;;-144.87;100.00;61487.56;5035501;28;20037;-77
2023/01/27 09:13:08;;;;;;;5.07;2.67;;;;;;;-144.87;100.00;61487.56;5026656;28;20657;-78
2023/01/27 09:15:39;;;;;;;8.48;2.60;;;;;;;-144.87;100.00;61487.56;5006937;28;20108;-79
2023/01/27 09:18:05;;;;;;;8.63;2.75;;;;;;;-144.87;100.00;61487.56;5014596;28;20053;-78
2023/01/27 09:20:36;;;;;;;5.75;2.75;;;;;;;-144.87;100.00;61487.56;5005102;28;20125;-77
2023/01/27 09:23:04;;;;;;;8.52;3.47;;;;;;;-144.87;100.00;61487.56;5009259;28;20033;-78
2023/01/27 09:25:30;;;;;;;6.40;2.83;;;;;;;-144.87;100.00;61487.56;5038900;28;20049;-77
2023/01/27 09:27:58;;;;;;;4.47;2.00;;;;;;;-144.87;100.00;61487.56;5006467;28;20046;-78
2023/01/27 09:30:25;;;;;;;7.03;2.80;;;;;;;-144.87;100.00;61487.56;5037006;28;20116;-76
2023/01/27 09:32:52;;;;;;;6.35;2.67;;;;;;;-144.87;100.00;61487.56;5035651;28;20744;-77
2023/01/27 09:35:19;;;;;;;4.75;2.53;;;;;;;-144.87;100.00;61487.56;5006302;28;20040;-77
2023/01/27 09:37:56;;;;;;;7.55;3.58;;;;;;;-144.87;100.00;61487.56;5000188;28;20049;-76
2023/01/27 09:40:46;;;;;;;5.72;3.03;;;;;;;-144.87;100.00;61487.56;5022752;28;20053;-76
2023/01/27 09:43:38;;;;;;;7.40;3.28;;;;;;;-144.87;100.00;61487.56;4988119;28;20048;-78
2023/01/27 09:46:28;;;;;;;4.32;2.67;;;;;;;-144.87;100.00;61487.56;4999529;28;20042;-77
2023/01/27 09:49:27;;;;;;;5.25;2.45;;;;;;;-144.87;100.00;61487.56;5005919;28;20048;-77
2023/01/27 09:51:58;;;;;;;4.22;2.70;;;;;;;-144.87;100.00;61487.56;5032222;28;20098;-78
2023/01/27 09:54:56;;;;;;;5.47;2.40;;;;;;;-144.87;100.00;61487.56;5003495;28;20030;-77
2023/01/27 09:57:41;;;;;;;6.10;2.78;;;;;;;-144.87;100.00;61487.56;5004136;28;20116;-77
2023/01/27 10:00:17;;;;;;;5.70;2.42;;;;;;;-144.87;100.00;61487.56;5004810;28;20540;-77
2023/01/27 10:03:02;;;;;;;8.27;2.72;;;;;;;-144.87;100.00;61487.56;5009432;28;20107;-78
2023/01/27 10:06:12;;;;;;;4.20;2.40;;;;;;;-144.87;100.00;61487.56;5031891;28;20077;-78
2023/01/27 10:08:46;;;;;;;;;;;;;;;-144.87;100.00;61487.56;4990428;28;20465;-79
2023/01/27 10:11:21;;;;;;;6.32;2.55;;;;;;;-144.87;100.00;61487.56;5006708;28;19917;-78
2023/01/27 10:14:05;;;;;;;7.88;2.80;;;;;;;-144.87;100.00;61487.56;5007990;28;20472;-78
2023/01/27 10:16:43;;;;;;;4.60;2.13;;;;;;;-144.87;100.00;61487.56;4990667;28;20038;-77
2023/01/27 10:19:39;;;;;;;5.10;2.78;;;;;;;-144.87;100.00;61487.56;4998219;28;20037;-77
2023/01/27 10:22:29;;;;;;;4.55;2.60;;;;;;;-144.87;100.00;61487.56;5003902;28;20042;-80
2023/01/27 10:25:16;;;;;;;4.80;3.00;;;;;;;-144.87;100.00;61487.56;5022495;28;20489;-78
2023/01/27 10:27:47;;;;;;;4.20;2.63;;;;;;;-144.87;100.00;61487.56;4998096;28;20661;-78
2023/01/27 10:30:59;;;;;;;5.68;3.60;;;;;;;-144.87;100.00;61487.56;4994711;28;20034;-78
2023/01/27 10:33:55;;;;;;;5.65;3.25;;;;;;;-144.87;100.00;61487.56;5003997;28;20081;-77
2023/01/27 10:36:42;;;;;;;6.50;3.65;;;;;;;-144.87;100.00;61487.56;4997540;28;20057;-79
2023/01/27 10:39:22;;;;;;;4.43;3.10;;;;;;;-144.87;100.00;61487.56;5003305;28;20075;-78
2023/01/27 10:42:16;;;;;;;5.05;2.83;;;;;;;-144.87;100.00;61487.56;5020709;28;20508;-78
2023/01/27 10:44:48;;;;;;;3.83;2.95;;;;;;;-144.87;100.00;61487.56;5014788;28;20092;-77
2023/01/27 10:47:33;;;;;;;6.30;3.17;;;;;;;-144.87;100.00;61487.56;5001011;28;20081;-77
2023/01/27 10:50:12;;;;;;;5.95;3.78;;;;;;;-144.87;100.00;61487.56;5004164;28;20423;-79
2023/01/27 10:53:02;;;;;;;8.05;3.00;;;;;;;-144.87;100.00;61487.56;5004891;28;20034;-79
2023/01/27 10:55:41;;;;;;;4.88;3.03;;;;;;;-144.87;100.00;61487.56;5032338;28;20131;-79
2023/01/27 10:58:19;;;;;;;7.15;2.75;;;;;;;-144.87;100.00;61487.56;5017197;28;20022;-78
2023/01/27 11:00:51;;;;;;;4.03;3.08;;;;;;;-144.87;100.00;61487.56;5001438;28;20066;-78
2023/01/27 11:03:28;;;;;;;7.35;3.53;;;;;;;-144.87;100.00;61487.56;5019400;28;20493;-78
2023/01/27 11:06:03;;;;;;;8.27;3.60;;;;;;;-144.87;100.00;61487.56;5032422;28;20137;-78
2023/01/27 11:08:34;;;;;;;7.88;3.00;;;;;;;-144.87;100.00;61487.56;5013271;28;20026;-78
2023/01/27 11:13:47;;;;;;;4.68;3.60;;;;;;;-144.87;100.00;61487.56;5002123;28;20269;-78
2023/01/27 11:16:18;;;;;;;14.45;3.88;;;;;;;-144.87;100.00;61487.56;5018652;28;20537;-78
2023/01/27 11:18:48;;;;;;;6.78;3.67;;;;;;;-144.87;100.00;61487.56;5005028;28;20125;-78
2023/01/27 11:21:26;;;;;;;6.75;3.53;;;;;;;-144.87;100.00;61487.56;5025815;28;20144;-78
2023/01/27 11:23:55;;;;;;;7.38;4.57;;;;;;;-144.87;100.00;61487.56;5031034;28;20069;-78
2023/01/27 11:26:33;;;;;;;6.97;4.03;;;;;;;-144.87;100.00;61487.56;5032613;28;20042;-78
2023/01/27 11:29:20;;;;;;;8.30;4.20;;;;;;;-144.87;100.00;61487.56;5019568;28;20053;-78
2023/01/27 11:32:05;;;;;;;5.90;3.85;;;;;;;-144.87;100.00;61487.56;5007904;28;20115;-78
2023/01/27 11:34:54;;;;;;;8.75;3.63;;;;;;;-144.87;100.00;61487.56;5002569;28;20045;-78
2023/01/27 11:37:33;;;;;;;7.30;3.75;;;;;;;-144.87;100.00;61487.56;5007355;28;20048;-79
2023/01/27 11:39:59;;;;;;;7.97;4.35;;;;;;;-144.87;100.00;61487.56;5036078;28;20137;-79
2023/01/27 11:42:34;;;;;;;7.57;4.30;;;;;;;-144.87;100.00;61487.56;5024919;28;20388;-77
2023/01/27 11:45:00;;;;;;;7.90;4.15;;;;;;;-144.87;100.00;61487.56;5008464;28;20042;-80
2023/01/27 11:47:33;;;;;;;11.02;5.10;;;;;;;-144.87;100.00;61487.56;5038925;28;20124;-78